Ned, Kentucky
Current Conditions -  °F | °C
As of 3:53 AM on Wednesday 26 Nov 2014 (Local Time) from KJKL Reporting Station
Broken Clouds Broken Clouds  
Wind Chill: 36°   Ceiling: 12000
Heat Index: 36°   Visibility: 10mi
Dew Point: 28°   Wind: 3mph
Humidity: 73%   Direction: NA
Pressure: 30.01"   Gusts: NA
Location:  37.4863°N, 83.3327°W
Report Text: KJKL 260853Z AUTO VRB03KT 10SM BKN120 02/M02 A3001 RMK AO2 PRESFR SLP165 T00221022 58020
Loading
Personal Weather Stations






























Interactive Weather Map New forecast layout! Learn more

10-Day Weather Forecast

Advertisements
Track Severe Weather on mobile